Time,TemperatureF,DewpointF,PressureIn,WindDirection,WindDirectionDegrees,WindSpeedMPH,WindSpeedGustMPH,Humidity,HourlyPrecipIn,Conditions,Clouds,dailyrainin,SoftwareType,DateUTC
2013-08-09 00:03:00,71.1,67.3,29.99,ENE,78,5.0,7.0,88,0.00,RA,RA,0.00,WeatherDisplay:10.37,2013-08-09 05:03:00,
2013-08-09 00:09:00,71.1,67.3,29.99,ENE,71,7.0,10.0,88,0.00,RA,RA,0.00,WeatherDisplay:10.37,2013-08-09 05:09:00,
2013-08-09 00:15:00,71.1,67.3,29.99,ENE,74,5.0,9.0,88,0.00,OVC,OVC,0.00,WeatherDisplay:10.37,2013-08-09 05:15:00,
2013-08-09 00:21:00,71.1,67.3,29.99,ENE,59,6.0,7.0,88,0.00,OVC,OVC,0.00,WeatherDisplay:10.37,2013-08-09 05:21:00,
2013-08-09 00:27:00,71.1,67.3,29.98,East,79,6.0,12.0,88,0.00,OVC,OVC,0.00,WeatherDisplay:10.37,2013-08-09 05:27:00,
2013-08-09 00:33:00,71.1,67.3,29.98,East,80,3.0,10.0,88,0.00,OVC,OVC,0.00,WeatherDisplay:10.37,2013-08-09 05:33:00,
2013-08-09 00:39:00,70.9,67.1,29.99,East,82,6.0,10.0,88,0.00,OVC,OVC,0.00,WeatherDisplay:10.37,2013-08-09 05:39:00,
2013-08-09 00:45:00,70.9,67.1,29.99,East,80,7.0,12.0,88,0.00,OVC,OVC,0.00,WeatherDisplay:10.37,2013-08-09 05:45:00,
2013-08-09 00:51:00,70.7,66.9,29.99,ENE,77,5.0,7.0,88,0.00,OVC,OVC,0.00,WeatherDisplay:10.37,2013-08-09 05:51:00,
2013-08-09 00:57:00,70.7,66.9,29.99,NE,52,7.0,10.0,88,0.00,OVC,OVC,0.00,WeatherDisplay:10.37,2013-08-09 05:57:00,
2013-08-09 01:03:00,70.7,66.9,29.98,NE,46,5.0,8.0,88,0.00,OVC,OVC,0.00,WeatherDisplay:10.37,2013-08-09 06:03:00,
2013-08-09 01:09:00,70.6,66.8,29.98,East,99,6.0,7.0,88,0.00,OVC,OVC,0.00,WeatherDisplay:10.37,2013-08-09 06:09:00,
2013-08-09 01:15:00,70.6,66.8,29.97,ENE,76,5.0,12.0,88,0.00,OVC,OVC,0.00,WeatherDisplay:10.37,2013-08-09 06:15:00,
2013-08-09 01:21:00,70.6,66.8,29.97,East,84,5.0,6.0,88,0.00,OVC,OVC,0.00,WeatherDisplay:10.37,2013-08-09 06:21:00,
2013-08-09 01:27:00,70.6,66.8,29.97,ENE,75,1.0,8.0,88,0.00,OVC,OVC,0.00,WeatherDisplay:10.37,2013-08-09 06:27:00,
2013-08-09 01:33:00,70.6,66.8,29.97,ENE,75,3.0,5.0,88,0.00,OVC,OVC,0.00,WeatherDisplay:10.37,2013-08-09 06:33:00,
2013-08-09 01:39:00,70.6,66.8,29.98,East,91,8.0,13.0,88,0.00,OVC,OVC,0.00,WeatherDisplay:10.37,2013-08-09 06:39:00,
2013-08-09 01:45:00,70.6,66.8,29.98,East,94,5.0,8.0,88,0.00,OVC,OVC,0.00,WeatherDisplay:10.37,2013-08-09 06:45:00,
2013-08-09 01:51:00,70.6,66.8,29.98,East,81,6.0,8.0,88,0.00,OVC,OVC,0.00,WeatherDisplay:10.37,2013-08-09 06:51:00,
2013-08-09 01:57:00,70.6,66.8,29.98,ENE,75,7.0,12.0,88,0.00,OVC,OVC,0.00,WeatherDisplay:10.37,2013-08-09 06:57:00,
2013-08-09 02:03:00,70.6,66.8,29.98,ENE,62,7.0,10.0,88,0.00,OVC,OVC,0.00,WeatherDisplay:10.37,2013-08-09 07:03:00,
2013-08-09 02:09:00,70.6,66.8,29.98,ENE,71,7.0,10.0,88,0.00,OVC,OVC,0.00,WeatherDisplay:10.37,2013-08-09 07:09:00,
2013-08-09 02:15:00,70.2,66.5,29.98,ENE,59,7.0,10.0,88,0.00,OVC,OVC,0.00,WeatherDisplay:10.37,2013-08-09 07:15:00,
2013-08-09 02:21:00,70.2,66.4,29.98,ENE,69,7.0,12.0,88,0.00,OVC,OVC,0.00,WeatherDisplay:10.37,2013-08-09 07:21:00,
2013-08-09 02:27:00,70.2,66.4,29.98,East,97,5.0,12.0,88,0.00,OVC,OVC,0.00,WeatherDisplay:10.37,2013-08-09 07:27:00,
2013-08-09 02:33:00,70.2,66.4,29.98,ENE,71,5.0,7.0,88,0.00,OVC,OVC,0.00,WeatherDisplay:10.37,2013-08-09 07:33:00,
2013-08-09 02:39:00,70.0,66.2,29.98,ENE,70,5.0,7.0,88,0.00,OVC,OVC,0.00,WeatherDisplay:10.37,2013-08-09 07:39:00,
2013-08-09 02:45:00,70.0,66.2,29.98,ENE,68,5.0,6.0,88,0.00,OVC,OVC,0.00,WeatherDisplay:10.37,2013-08-09 07:45:00,
2013-08-09 02:51:00,70.0,66.2,29.97,East,88,8.0,10.0,88,0.00,OVC,OVC,0.00,WeatherDisplay:10.37,2013-08-09 07:51:00,
2013-08-09 02:57:00,70.0,66.2,29.97,ENE,75,5.0,7.0,88,0.00,OVC,OVC,0.00,WeatherDisplay:10.37,2013-08-09 07:57:00,
2013-08-09 03:03:00,70.0,66.2,29.97,ENE,73,0.0,0.0,88,0.00,-RA,-RA,0.00,WeatherDisplay:10.37,2013-08-09 08:03:00,
2013-08-09 03:09:00,70.0,66.2,29.97,ENE,65,5.0,6.0,88,0.00,-RA,-RA,0.00,WeatherDisplay:10.37,2013-08-09 08:09:00,
2013-08-09 03:15:00,70.0,66.2,29.98,ENE,63,0.0,0.0,88,0.00,-RA,-RA,0.00,WeatherDisplay:10.37,2013-08-09 08:15:00,
2013-08-09 03:21:00,70.0,66.2,29.98,ENE,66,6.0,10.0,88,0.00,-RA,-RA,0.00,WeatherDisplay:10.37,2013-08-09 08:21:00,
2013-08-09 03:27:00,69.8,66.0,29.98,ENE,73,5.0,9.0,88,0.00,-RA,-RA,0.00,WeatherDisplay:10.37,2013-08-09 08:27:00,
2013-08-09 03:33:00,69.8,66.0,29.98,ENE,76,2.0,3.0,88,0.00,-RA,-RA,0.00,WeatherDisplay:10.37,2013-08-09 08:33:00,
2013-08-09 03:39:00,69.8,66.0,29.98,East,85,6.0,8.0,88,0.00,-RA,-RA,0.00,WeatherDisplay:10.37,2013-08-09 08:39:00,
2013-08-09 03:45:00,69.7,65.9,29.98,ENE,69,6.0,7.0,88,0.00,-RA,-RA,0.00,WeatherDisplay:10.37,2013-08-09 08:45:00,
2013-08-09 03:51:00,69.7,65.9,29.99,ENE,64,6.0,7.0,88,0.00,-RA,-RA,0.00,WeatherDisplay:10.37,2013-08-09 08:51:00,
2013-08-09 03:57:00,69.7,65.9,29.99,East,81,3.0,7.0,88,0.00,-RA,-RA,0.00,WeatherDisplay:10.37,2013-08-09 08:57:00,
2013-08-09 04:03:00,69.6,65.9,29.98,East,80,5.0,8.0,88,0.00,OVC,OVC,0.00,WeatherDisplay:10.37,2013-08-09 09:03:00,
2013-08-09 04:09:00,69.5,65.7,29.98,East,82,5.0,7.0,88,0.00,OVC,OVC,0.00,WeatherDisplay:10.37,2013-08-09 09:09:00,
2013-08-09 04:15:00,69.5,65.7,29.98,ENE,76,5.0,7.0,88,0.00,OVC,OVC,0.00,WeatherDisplay:10.37,2013-08-09 09:15:00,
2013-08-09 04:21:00,69.5,65.7,29.98,ENE,68,8.0,12.0,88,0.00,OVC,OVC,0.00,WeatherDisplay:10.37,2013-08-09 09:21:00,
2013-08-09 04:27:00,69.5,65.7,29.97,ENE,70,5.0,6.0,88,0.00,OVC,OVC,0.00,WeatherDisplay:10.37,2013-08-09 09:27:00,
2013-08-09 04:33:00,69.5,65.7,29.97,ENE,63,1.0,7.0,88,0.00,OVC,OVC,0.00,WeatherDisplay:10.37,2013-08-09 09:33:00,
2013-08-09 04:39:00,69.5,65.7,29.98,East,97,5.0,5.0,88,0.00,OVC,OVC,0.00,WeatherDisplay:10.37,2013-08-09 09:39:00,
2013-08-09 04:45:00,69.3,65.6,29.98,East,89,6.0,12.0,88,0.00,OVC,OVC,0.00,WeatherDisplay:10.37,2013-08-09 09:45:00,
2013-08-09 04:51:00,69.3,65.6,29.97,East,90,5.0,7.0,88,0.00,OVC,OVC,0.00,WeatherDisplay:10.37,2013-08-09 09:51:00,
2013-08-09 04:57:00,69.1,65.4,29.97,East,86,7.0,9.0,88,0.00,OVC,OVC,0.00,WeatherDisplay:10.37,2013-08-09 09:57:00,
2013-08-09 05:03:00,69.1,65.4,29.96,ENE,78,7.0,12.0,88,0.00,-RA,-RA,0.00,WeatherDisplay:10.37,2013-08-09 10:03:00,
2013-08-09 05:09:00,69.1,65.4,29.96,ENE,74,6.0,16.0,88,0.00,-RA,-RA,0.00,WeatherDisplay:10.37,2013-08-09 10:09:00,
2013-08-09 05:15:00,69.1,65.4,29.96,East,89,5.0,7.0,88,0.00,-RA,-RA,0.00,WeatherDisplay:10.37,2013-08-09 10:15:00,
2013-08-09 05:21:00,68.9,65.2,29.96,East,97,2.0,8.0,88,0.00,-RA,-RA,0.00,WeatherDisplay:10.37,2013-08-09 10:21:00,
2013-08-09 05:27:00,68.9,65.2,29.96,East,90,6.0,9.0,88,0.00,-RA,-RA,0.00,WeatherDisplay:10.37,2013-08-09 10:27:00,
2013-08-09 05:33:00,68.8,65.1,29.96,ENE,76,7.0,7.0,88,0.00,-RA,-RA,0.00,WeatherDisplay:10.37,2013-08-09 10:33:00,
2013-08-09 05:39:00,68.8,65.1,29.95,ENE,69,6.0,8.0,88,0.00,-RA,-RA,0.00,WeatherDisplay:10.37,2013-08-09 10:39:00,
2013-08-09 05:45:00,68.8,65.1,29.95,ENE,76,1.0,3.0,88,0.01,-RA,-RA,0.02,WeatherDisplay:10.37,2013-08-09 10:45:00,
2013-08-09 05:51:00,67.5,63.8,29.97,East,99,5.0,7.0,88,0.12,-RA,-RA,0.24,WeatherDisplay:10.37,2013-08-09 10:51:00,
2013-08-09 05:57:00,67.3,63.6,29.97,ESE,121,0.0,3.0,88,0.10,-RA,-RA,0.43,WeatherDisplay:10.37,2013-08-09 10:57:00,
2013-08-09 06:03:00,67.1,63.4,29.97,East,86,6.0,7.0,88,0.16,RA,RA,0.75,WeatherDisplay:10.37,2013-08-09 11:03:00,
2013-08-09 06:09:00,66.8,63.1,29.97,ENE,78,8.0,12.0,88,0.08,RA,RA,0.97,WeatherDisplay:10.37,2013-08-09 11:09:00,
2013-08-09 06:15:00,66.8,63.1,29.97,ENE,68,6.0,8.0,88,0.04,RA,RA,1.07,WeatherDisplay:10.37,2013-08-09 11:15:00,
2013-08-09 06:21:00,66.8,63.1,29.97,East,79,3.0,5.0,88,0.02,RA,RA,1.11,WeatherDisplay:10.37,2013-08-09 11:21:00,
2013-08-09 06:27:00,66.8,63.1,29.97,ENE,72,0.0,5.0,88,0.01,RA,RA,1.15,WeatherDisplay:10.37,2013-08-09 11:27:00,
2013-08-09 06:33:00,66.8,63.1,29.97,North,0,0.0,0.0,88,0.00, +RA, +RA,1.16,WeatherDisplay:10.37,2013-08-09 11:33:00,
2013-08-09 06:39:00,67.0,63.3,29.97,NW,306,1.0,3.0,88,0.01, +RA, +RA,1.17,WeatherDisplay:10.37,2013-08-09 11:39:00,
2013-08-09 06:45:00,67.0,63.3,29.97,ENE,68,0.0,4.0,88,0.01, +RA, +RA,1.19,WeatherDisplay:10.37,2013-08-09 11:45:00,
2013-08-09 06:51:00,67.0,63.3,29.97,ENE,78,0.0,4.0,88,0.01, +RA, +RA,1.21,WeatherDisplay:10.37,2013-08-09 11:51:00,
2013-08-09 06:57:00,67.0,63.3,29.97,NE,55,0.0,0.0,88,0.01, +RA, +RA,1.22,WeatherDisplay:10.37,2013-08-09 11:57:00,
2013-08-09 07:03:00,67.1,63.4,29.97,North,352,0.0,0.0,88,0.01,-RA,-RA,1.23,WeatherDisplay:10.37,2013-08-09 12:03:00,
2013-08-09 07:09:00,67.1,63.4,29.97,SW,214,0.0,0.0,88,0.00,-RA,-RA,1.23,WeatherDisplay:10.37,2013-08-09 12:09:00,
2013-08-09 07:15:00,67.2,63.6,29.97,West,279,0.0,0.0,88,0.00,-RA,-RA,1.23,WeatherDisplay:10.37,2013-08-09 12:15:00,
2013-08-09 07:21:00,67.5,63.8,29.97,WNW,287,0.0,0.0,88,0.01,-RA,-RA,1.24,WeatherDisplay:10.37,2013-08-09 12:21:00,
2013-08-09 07:27:00,67.5,63.8,29.97,West,281,0.0,0.0,88,0.00,-RA,-RA,1.24,WeatherDisplay:10.37,2013-08-09 12:27:00,
2013-08-09 07:33:00,67.5,63.8,29.97,WNW,297,0.0,0.0,88,0.00,-RA,-RA,1.24,WeatherDisplay:10.37,2013-08-09 12:33:00,
2013-08-09 07:39:00,67.7,64.0,29.98,NW,315,0.0,0.0,88,0.00,-RA,-RA,1.25,WeatherDisplay:10.37,2013-08-09 12:39:00,
2013-08-09 07:45:00,67.7,64.0,29.98,NNE,24,0.0,0.0,88,0.00,-RA,-RA,1.25,WeatherDisplay:10.37,2013-08-09 12:45:00,
2013-08-09 07:51:00,67.7,64.0,29.99,NNE,12,0.0,0.0,88,0.00,-RA,-RA,1.25,WeatherDisplay:10.37,2013-08-09 12:51:00,
2013-08-09 07:57:00,67.7,64.0,29.99,ENE,72,3.0,4.0,88,0.00,-RA,-RA,1.25,WeatherDisplay:10.37,2013-08-09 12:57:00,
2013-08-09 08:03:00,67.7,64.0,29.99,ENE,67,0.0,0.0,88,0.00,-RA,-RA,1.25,WeatherDisplay:10.37,2013-08-09 13:03:00,
2013-08-09 08:09:00,67.7,64.0,29.99,East,79,0.0,0.0,88,0.00,-RA,-RA,1.25,WeatherDisplay:10.37,2013-08-09 13:09:00,
2013-08-09 08:15:00,67.7,64.0,30.00,ENE,78,3.0,6.0,88,0.00,-RA,-RA,1.25,WeatherDisplay:10.37,2013-08-09 13:15:00,
2013-08-09 08:21:00,67.7,64.0,30.00,East,88,3.0,7.0,88,0.00,-RA,-RA,1.25,WeatherDisplay:10.37,2013-08-09 13:21:00,
2013-08-09 08:27:00,67.7,64.0,30.00,East,88,6.0,8.0,88,0.00,-RA,-RA,1.25,WeatherDisplay:10.37,2013-08-09 13:27:00,
2013-08-09 08:33:00,67.7,64.0,30.00,ENE,64,6.0,9.0,88,0.00,-RA,-RA,1.25,WeatherDisplay:10.37,2013-08-09 13:33:00,
2013-08-09 08:39:00,67.7,64.0,30.00,ENE,75,2.0,8.0,88,0.00,-RA,-RA,1.25,WeatherDisplay:10.37,2013-08-09 13:39:00,
2013-08-09 08:45:00,67.7,64.0,30.00,East,82,2.0,7.0,88,0.00,-RA,-RA,1.25,WeatherDisplay:10.37,2013-08-09 13:45:00,
2013-08-09 08:51:00,67.7,64.0,30.01,ENE,76,1.0,7.0,88,0.00,-RA,-RA,1.25,WeatherDisplay:10.37,2013-08-09 13:51:00,
2013-08-09 08:57:00,67.7,64.0,30.01,ENE,71,6.0,8.0,88,0.00,-RA,-RA,1.25,WeatherDisplay:10.37,2013-08-09 13:57:00,
2013-08-09 09:03:00,67.9,64.2,30.01,East,87,0.0,4.0,88,0.00,-RA,-RA,1.25,WeatherDisplay:10.37,2013-08-09 14:03:00,
2013-08-09 09:09:00,67.7,64.0,30.01,NE,52,7.0,10.0,88,0.00,-RA,-RA,1.25,WeatherDisplay:10.37,2013-08-09 14:09:00,
2013-08-09 09:15:00,67.7,64.0,30.02,ENE,69,5.0,12.0,88,0.00,-RA,-RA,1.25,WeatherDisplay:10.37,2013-08-09 14:15:00,
2013-08-09 09:21:00,67.7,64.0,30.02,ENE,77,9.0,12.0,88,0.00,-RA,-RA,1.25,WeatherDisplay:10.37,2013-08-09 14:21:00,
2013-08-09 09:27:00,67.7,64.0,30.02,East,79,7.0,10.0,88,0.00,-RA,-RA,1.25,WeatherDisplay:10.37,2013-08-09 14:27:00,
2013-08-09 09:33:00,67.7,64.0,30.02,ENE,69,6.0,8.0,88,0.00,-RA,-RA,1.25,WeatherDisplay:10.37,2013-08-09 14:33:00,
2013-08-09 09:39:00,67.9,64.2,30.02,ENE,71,6.0,12.0,88,0.00,-RA,-RA,1.25,WeatherDisplay:10.37,2013-08-09 14:39:00,
2013-08-09 09:45:00,67.7,64.0,30.02,East,87,9.0,12.0,88,0.00,-RA,-RA,1.25,WeatherDisplay:10.37,2013-08-09 14:45:00,
2013-08-09 09:51:00,67.7,64.0,30.02,ENE,71,8.0,12.0,88,0.00,-RA,-RA,1.25,WeatherDisplay:10.37,2013-08-09 14:51:00,
2013-08-09 09:57:00,67.9,64.2,30.02,East,84,6.0,10.0,88,0.00,-RA,-RA,1.25,WeatherDisplay:10.37,2013-08-09 14:57:00,
2013-08-09 10:03:00,67.1,63.4,30.03,ENE,60,7.0,14.0,88,0.00,-RA,-RA,1.25,WeatherDisplay:10.37,2013-08-09 15:03:00,
2013-08-09 10:09:00,67.0,63.3,30.03,East,94,6.0,8.0,88,0.00,-RA,-RA,1.25,WeatherDisplay:10.37,2013-08-09 15:09:00,
2013-08-09 10:15:00,66.4,62.7,30.03,ESE,110,10.0,15.0,88,0.00,-RA,-RA,1.25,WeatherDisplay:10.37,2013-08-09 15:15:00,
2013-08-09 10:21:00,65.7,62.0,30.03,East,88,13.0,20.0,88,0.00,-RA,-RA,1.25,WeatherDisplay:10.37,2013-08-09 15:21:00,
2013-08-09 10:27:00,65.7,62.1,30.04,East,79,8.0,12.0,88,0.00,-RA,-RA,1.25,WeatherDisplay:10.37,2013-08-09 15:27:00,
2013-08-09 10:33:00,65.0,61.4,30.04,ENE,75,8.0,18.0,88,0.00,-RA,-RA,1.25,WeatherDisplay:10.37,2013-08-09 15:33:00,
2013-08-09 10:39:00,64.1,60.4,30.05,ENE,71,12.0,20.0,88,0.00,-RA,-RA,1.25,WeatherDisplay:10.37,2013-08-09 15:39:00,
2013-08-09 10:45:00,63.9,60.2,30.05,ENE,62,10.0,16.0,88,0.00,-RA,-RA,1.25,WeatherDisplay:10.37,2013-08-09 15:45:00,
2013-08-09 10:51:00,63.7,60.0,30.06,ENE,69,6.0,10.0,88,0.00,-RA,-RA,1.25,WeatherDisplay:10.37,2013-08-09 15:51:00,
2013-08-09 10:57:00,63.9,60.2,30.06,East,92,5.0,7.0,88,0.00,-RA,-RA,1.25,WeatherDisplay:10.37,2013-08-09 15:57:00,
2013-08-09 11:03:00,63.3,59.7,30.06,East,79,9.0,14.0,88,0.00,-RA,-RA,1.25,WeatherDisplay:10.37,2013-08-09 16:03:00,
2013-08-09 11:09:00,63.0,59.3,30.06,ENE,77,5.0,13.0,88,0.00,-RA,-RA,1.25,WeatherDisplay:10.37,2013-08-09 16:09:00,
2013-08-09 11:15:00,62.6,59.0,30.06,ENE,61,9.0,14.0,88,0.00,-RA,-RA,1.25,WeatherDisplay:10.37,2013-08-09 16:15:00,
2013-08-09 11:21:00,62.5,58.9,30.06,ENE,68,7.0,16.0,88,0.00,-RA,-RA,1.25,WeatherDisplay:10.37,2013-08-09 16:21:00,
2013-08-09 11:27:00,62.6,59.0,30.06,ENE,73,7.0,12.0,88,0.00,-RA,-RA,1.25,WeatherDisplay:10.37,2013-08-09 16:27:00,
2013-08-09 11:33:00,62.5,58.9,30.06,ENE,67,12.0,17.0,88,0.00,-RA,-RA,1.25,WeatherDisplay:10.37,2013-08-09 16:33:00,
2013-08-09 11:39:00,62.5,58.9,30.07,ENE,69,10.0,21.0,88,0.00,-RA,-RA,1.25,WeatherDisplay:10.37,2013-08-09 16:39:00,
2013-08-09 11:45:00,62.6,59.0,30.07,ENE,75,10.0,14.0,88,0.00,-RA,-RA,1.25,WeatherDisplay:10.37,2013-08-09 16:45:00,
2013-08-09 11:51:00,63.0,59.3,30.08,East,87,8.0,14.0,88,0.00,-RA,-RA,1.25,WeatherDisplay:10.37,2013-08-09 16:51:00,
2013-08-09 11:57:00,62.9,59.3,30.08,ESE,105,8.0,13.0,88,0.00,-RA,-RA,1.25,WeatherDisplay:10.37,2013-08-09 16:57:00,
2013-08-09 12:03:00,62.7,59.1,30.08,ENE,70,5.0,9.0,88,0.00,-RA,-RA,1.25,WeatherDisplay:10.37,2013-08-09 17:03:00,
2013-08-09 12:09:00,63.0,59.3,30.08,NE,55,7.0,12.0,88,0.00,-RA,-RA,1.25,WeatherDisplay:10.37,2013-08-09 17:09:00,
2013-08-09 12:15:00,62.8,59.2,30.08,ENE,71,3.0,5.0,88,0.00,-RA,-RA,1.25,WeatherDisplay:10.37,2013-08-09 17:15:00,
2013-08-09 12:21:00,63.4,59.7,30.08,NE,51,5.0,7.0,88,0.00,-RA,-RA,1.25,WeatherDisplay:10.37,2013-08-09 17:21:00,
2013-08-09 12:27:00,62.7,59.1,30.08,ENE,74,7.0,12.0,88,0.00,-RA,-RA,1.25,WeatherDisplay:10.37,2013-08-09 17:27:00,
2013-08-09 12:33:00,63.0,59.3,30.08,ENE,68,6.0,10.0,88,0.00,-RA,-RA,1.25,WeatherDisplay:10.37,2013-08-09 17:33:00,
2013-08-09 12:39:00,63.2,59.5,30.08,East,84,6.0,9.0,88,0.00,-RA,-RA,1.25,WeatherDisplay:10.37,2013-08-09 17:39:00,
2013-08-09 12:45:00,63.7,60.0,30.08,East,94,5.0,7.0,88,0.00,-RA,-RA,1.25,WeatherDisplay:10.37,2013-08-09 17:45:00,
2013-08-09 12:51:00,64.2,60.6,30.08,ENE,62,6.0,7.0,88,0.00,-RA,-RA,1.25,WeatherDisplay:10.37,2013-08-09 17:51:00,
2013-08-09 12:57:00,63.9,60.2,30.08,ENE,73,9.0,13.0,88,0.00,-RA,-RA,1.25,WeatherDisplay:10.37,2013-08-09 17:57:00,
2013-08-09 13:03:00,63.9,60.2,30.08,ENE,76,7.0,12.0,88,0.00,-RA,-RA,1.25,WeatherDisplay:10.37,2013-08-09 18:03:00,
2013-08-09 13:09:00,64.1,60.4,30.08,East,98,6.0,9.0,88,0.00,-RA,-RA,1.25,WeatherDisplay:10.37,2013-08-09 18:09:00,
2013-08-09 13:15:00,64.4,60.7,30.08,East,96,5.0,7.0,88,0.00,-RA,-RA,1.25,WeatherDisplay:10.37,2013-08-09 18:15:00,
2013-08-09 13:21:00,64.6,60.9,30.08,East,88,6.0,7.0,88,0.00,-RA,-RA,1.25,WeatherDisplay:10.37,2013-08-09 18:21:00,
2013-08-09 13:27:00,64.6,60.9,30.08,ENE,73,6.0,7.0,88,0.00,-RA,-RA,1.25,WeatherDisplay:10.37,2013-08-09 18:27:00,
2013-08-09 13:33:00,64.6,60.9,30.08,East,82,7.0,7.0,88,0.00,-RA,-RA,1.25,WeatherDisplay:10.37,2013-08-09 18:33:00,
2013-08-09 13:39:00,65.0,61.3,30.08,East,92,6.0,12.0,88,0.00,-RA,-RA,1.25,WeatherDisplay:10.37,2013-08-09 18:39:00,
2013-08-09 13:45:00,65.0,61.3,30.08,ENE,62,6.0,9.0,88,0.00,-RA,-RA,1.25,WeatherDisplay:10.37,2013-08-09 18:45:00,
2013-08-09 13:51:00,65.3,61.6,30.08,NE,56,6.0,13.0,88,0.00,-RA,-RA,1.25,WeatherDisplay:10.37,2013-08-09 18:51:00,
2013-08-09 13:57:00,65.3,61.6,30.08,NE,49,6.0,7.0,88,0.00,-RA,-RA,1.25,WeatherDisplay:10.37,2013-08-09 18:57:00,
2013-08-09 14:03:00,65.7,62.0,30.08,ENE,71,9.0,13.0,88,0.00,BKN,BKN,1.25,WeatherDisplay:10.37,2013-08-09 19:03:00,
2013-08-09 14:09:00,66.1,62.4,30.08,ENE,70,7.0,10.0,88,0.00,BKN,BKN,1.25,WeatherDisplay:10.37,2013-08-09 19:09:00,
2013-08-09 14:15:00,66.2,62.6,30.08,ENE,69,7.0,8.0,88,0.00,BKN,BKN,1.25,WeatherDisplay:10.37,2013-08-09 19:15:00,
2013-08-09 14:21:00,66.4,62.7,30.08,ENE,67,6.0,9.0,88,0.00,BKN,BKN,1.25,WeatherDisplay:10.37,2013-08-09 19:21:00,
2013-08-09 14:27:00,66.9,63.3,30.08,ENE,69,3.0,8.0,88,0.00,BKN,BKN,1.25,WeatherDisplay:10.37,2013-08-09 19:27:00,
2013-08-09 14:33:00,67.0,63.3,30.08,ENE,66,8.0,12.0,88,0.00,BKN,BKN,1.25,WeatherDisplay:10.37,2013-08-09 19:33:00,
2013-08-09 14:39:00,67.0,63.3,30.08,East,80,6.0,8.0,88,0.00,BKN,BKN,1.25,WeatherDisplay:10.37,2013-08-09 19:39:00,
2013-08-09 14:45:00,67.1,63.4,30.08,East,91,5.0,8.0,88,0.00,BKN,BKN,1.25,WeatherDisplay:10.37,2013-08-09 19:45:00,
2013-08-09 14:51:00,67.3,63.6,30.08,ENE,70,5.0,8.0,88,0.00,BKN,BKN,1.25,WeatherDisplay:10.37,2013-08-09 19:51:00,
2013-08-09 14:57:00,67.5,63.8,30.08,ENE,67,7.0,10.0,88,0.00,BKN,BKN,1.25,WeatherDisplay:10.37,2013-08-09 19:57:00,
2013-08-09 15:03:00,67.9,64.3,30.09,ENE,63,6.0,12.0,88,0.00,BKN,BKN,1.25,WeatherDisplay:10.37,2013-08-09 20:03:00,
2013-08-09 15:09:00,68.1,64.4,30.09,ENE,62,5.0,9.0,88,0.00,BKN,BKN,1.25,WeatherDisplay:10.37,2013-08-09 20:09:00,
2013-08-09 15:15:00,68.8,65.1,30.08,East,88,5.0,7.0,88,0.00,BKN,BKN,1.25,WeatherDisplay:10.37,2013-08-09 20:15:00,
2013-08-09 15:21:00,68.5,64.8,30.08,ENE,73,5.0,9.0,88,0.00,BKN,BKN,1.25,WeatherDisplay:10.37,2013-08-09 20:21:00,
2013-08-09 15:27:00,68.9,65.2,30.08,ENE,78,6.0,7.0,88,0.00,BKN,BKN,1.25,WeatherDisplay:10.37,2013-08-09 20:27:00,
2013-08-09 15:33:00,69.0,65.3,30.08,ENE,70,7.0,12.0,88,0.00,BKN,BKN,1.25,WeatherDisplay:10.37,2013-08-09 20:33:00,
2013-08-09 15:39:00,69.2,65.5,30.08,ENE,75,7.0,10.0,88,0.00,BKN,BKN,1.25,WeatherDisplay:10.37,2013-08-09 20:39:00,
2013-08-09 15:45:00,69.7,66.0,30.08,ENE,73,6.0,12.0,88,0.00,BKN,BKN,1.25,WeatherDisplay:10.37,2013-08-09 20:45:00,
2013-08-09 15:51:00,70.2,64.5,30.08,East,87,7.0,10.0,82,0.00,BKN,BKN,1.25,WeatherDisplay:10.37,2013-08-09 20:51:00,
2013-08-09 15:57:00,70.2,64.4,30.08,ENE,74,5.0,13.0,82,0.00,BKN,BKN,1.25,WeatherDisplay:10.37,2013-08-09 20:57:00,
2013-08-09 16:03:00,70.7,65.0,30.08,East,87,5.0,16.0,82,0.00,BKN,BKN,1.25,WeatherDisplay:10.37,2013-08-09 21:03:00,
2013-08-09 16:09:00,71.3,65.5,30.08,East,87,5.0,8.0,82,0.00,BKN,BKN,1.25,WeatherDisplay:10.37,2013-08-09 21:09:00,
2013-08-09 16:15:00,72.9,67.1,30.08,ENE,73,5.0,7.0,82,0.00,BKN,BKN,1.25,WeatherDisplay:10.37,2013-08-09 21:15:00,
2013-08-09 16:21:00,72.4,66.6,30.08,ENE,66,5.0,6.0,82,0.00,BKN,BKN,1.25,WeatherDisplay:10.37,2013-08-09 21:21:00,
2013-08-09 16:27:00,72.0,66.2,30.08,NE,52,7.0,10.0,82,0.00,BKN,BKN,1.25,WeatherDisplay:10.37,2013-08-09 21:27:00,
2013-08-09 16:33:00,71.5,65.7,30.08,ENE,60,6.0,12.0,82,0.00,BKN,BKN,1.25,WeatherDisplay:10.37,2013-08-09 21:33:00,
2013-08-09 16:39:00,71.8,66.0,30.08,NE,55,7.0,7.0,82,0.00,BKN,BKN,1.25,WeatherDisplay:10.37,2013-08-09 21:39:00,
2013-08-09 16:45:00,71.6,65.8,30.08,East,83,6.0,10.0,82,0.00,BKN,BKN,1.25,WeatherDisplay:10.37,2013-08-09 21:45:00,
2013-08-09 16:51:00,73.0,67.1,30.08,ENE,67,8.0,12.0,82,0.00,BKN,BKN,1.25,WeatherDisplay:10.37,2013-08-09 21:51:00,
2013-08-09 16:57:00,73.8,68.0,30.08,East,83,6.0,17.0,82,0.00,BKN,BKN,1.25,WeatherDisplay:10.37,2013-08-09 21:57:00,
2013-08-09 17:03:00,74.1,68.2,30.08,East,85,10.0,15.0,82,0.00,OVC,OVC,1.25,WeatherDisplay:10.37,2013-08-09 22:03:00,
2013-08-09 17:09:00,73.9,68.0,30.08,East,86,8.0,10.0,82,0.00,OVC,OVC,1.25,WeatherDisplay:10.37,2013-08-09 22:09:00,
2013-08-09 17:15:00,74.8,68.9,30.08,ENE,72,7.0,12.0,82,0.00,OVC,OVC,1.25,WeatherDisplay:10.37,2013-08-09 22:15:00,
2013-08-09 17:21:00,73.5,67.7,30.08,ENE,72,7.0,8.0,82,0.00,OVC,OVC,1.25,WeatherDisplay:10.37,2013-08-09 22:21:00,
2013-08-09 17:27:00,73.0,67.2,30.07,ENE,73,6.0,13.0,82,0.00,OVC,OVC,1.25,WeatherDisplay:10.37,2013-08-09 22:27:00,
2013-08-09 17:33:00,72.5,66.7,30.07,ENE,78,6.0,12.0,82,0.00,BKN,BKN,1.25,WeatherDisplay:10.37,2013-08-09 22:33:00,
2013-08-09 17:39:00,72.4,66.6,30.07,East,79,6.0,8.0,82,0.00,BKN,BKN,1.25,WeatherDisplay:10.37,2013-08-09 22:39:00,
2013-08-09 17:45:00,72.2,66.4,30.07,ENE,71,8.0,15.0,82,0.00,BKN,BKN,1.25,WeatherDisplay:10.37,2013-08-09 22:45:00,
2013-08-09 17:51:00,74.8,69.0,30.06,East,87,3.0,8.0,82,0.00,BKN,BKN,1.25,WeatherDisplay:10.37,2013-08-09 22:51:00,
2013-08-09 17:57:00,73.8,66.9,30.06,ENE,73,6.0,12.0,79,0.00,BKN,BKN,1.25,WeatherDisplay:10.37,2013-08-09 22:57:00,
2013-08-09 18:03:00,72.8,65.9,30.06,ENE,69,6.0,12.0,79,0.00,BKN,BKN,1.25,WeatherDisplay:10.37,2013-08-09 23:03:00,
2013-08-09 18:09:00,72.5,65.6,30.06,ENE,68,6.0,7.0,79,0.00,BKN,BKN,1.25,WeatherDisplay:10.37,2013-08-09 23:09:00,
2013-08-09 18:15:00,73.2,66.3,30.06,ENE,64,3.0,6.0,79,0.00,BKN,BKN,1.25,WeatherDisplay:10.37,2013-08-09 23:15:00,
2013-08-09 18:21:00,73.1,66.2,30.06,ENE,63,3.0,8.0,79,0.00,BKN,BKN,1.25,WeatherDisplay:10.37,2013-08-09 23:21:00,
2013-08-09 18:27:00,72.9,66.0,30.06,ENE,61,7.0,12.0,79,0.00,BKN,BKN,1.25,WeatherDisplay:10.37,2013-08-09 23:27:00,
2013-08-09 18:33:00,72.3,65.4,30.06,ENE,60,5.0,7.0,79,0.00,BKN,BKN,1.25,WeatherDisplay:10.37,2013-08-09 23:33:00,
2013-08-09 18:39:00,71.9,65.0,30.06,East,80,3.0,6.0,79,0.00,BKN,BKN,1.25,WeatherDisplay:10.37,2013-08-09 23:39:00,
2013-08-09 18:45:00,72.2,65.3,30.06,East,89,5.0,6.0,79,0.00,BKN,BKN,1.25,WeatherDisplay:10.37,2013-08-09 23:45:00,
2013-08-09 18:51:00,72.2,65.3,30.06,NE,49,3.0,7.0,79,0.00,BKN,BKN,1.25,WeatherDisplay:10.37,2013-08-09 23:51:00,
2013-08-09 18:57:00,71.8,64.9,30.06,ENE,74,7.0,9.0,79,0.00,BKN,BKN,1.25,WeatherDisplay:10.37,2013-08-09 23:57:00,
2013-08-09 19:03:00,72.6,65.7,30.06,East,80,0.0,7.0,79,0.00,BKN,BKN,1.25,WeatherDisplay:10.37,2013-08-10 00:03:00,
2013-08-09 19:09:00,72.9,66.0,30.06,ENE,73,8.0,9.0,79,0.00,BKN,BKN,1.25,WeatherDisplay:10.37,2013-08-10 00:09:00,
2013-08-09 19:15:00,73.4,66.5,30.06,NE,52,5.0,6.0,79,0.00,BKN,BKN,1.25,WeatherDisplay:10.37,2013-08-10 00:15:00,
2013-08-09 19:21:00,73.1,66.2,30.06,NE,51,6.0,7.0,79,0.00,BKN,BKN,1.25,WeatherDisplay:10.37,2013-08-10 00:21:00,
2013-08-09 19:27:00,72.5,65.6,30.06,NE,54,7.0,12.0,79,0.00,BKN,BKN,1.25,WeatherDisplay:10.37,2013-08-10 00:27:00,
2013-08-09 19:33:00,72.5,65.6,30.06,NE,50,6.0,7.0,79,0.00,BKN,BKN,1.25,WeatherDisplay:10.37,2013-08-10 00:33:00,
2013-08-09 19:39:00,71.7,64.8,30.06,ENE,72,5.0,8.0,79,0.00,BKN,BKN,1.25,WeatherDisplay:10.37,2013-08-10 00:39:00,
2013-08-09 19:45:00,71.5,64.7,30.06,ENE,58,7.0,12.0,79,0.00,BKN,BKN,1.25,WeatherDisplay:10.37,2013-08-10 00:45:00,
2013-08-09 19:48:00,71.4,64.5,30.06,ENE,61,5.0,7.0,79,0.00,BKN,BKN,1.25,WeatherDisplay:10.37,2013-08-10 00:48:00,
2013-08-09 19:54:00,71.9,65.1,30.06,ENE,71,5.0,10.0,79,0.00,BKN,BKN,1.25,WeatherDisplay:10.37,2013-08-10 00:54:00,
2013-08-09 20:00:00,71.8,64.9,30.06,ENE,67,6.0,7.0,79,0.00,BKN,BKN,1.25,WeatherDisplay:10.37,2013-08-10 01:00:00,
2013-08-09 20:06:00,71.5,65.7,30.07,ENE,72,5.0,8.0,82,0.00,SCT,SCT,1.25,WeatherDisplay:10.37,2013-08-10 01:06:00,
2013-08-09 20:12:00,71.5,65.7,30.07,East,84,3.0,7.0,82,0.00,SCT,SCT,1.25,WeatherDisplay:10.37,2013-08-10 01:12:00,
2013-08-09 20:18:00,71.3,65.5,30.07,ENE,73,0.0,0.0,82,0.00,SCT,SCT,1.25,WeatherDisplay:10.37,2013-08-10 01:18:00,
2013-08-09 20:24:00,70.5,64.7,30.07,ENE,67,0.0,0.0,82,0.00,SCT,SCT,1.25,WeatherDisplay:10.37,2013-08-10 01:24:00,
2013-08-09 20:30:00,69.8,64.0,30.08,East,85,0.0,0.0,82,0.00,SCT,SCT,1.25,WeatherDisplay:10.37,2013-08-10 01:30:00,
2013-08-09 20:36:00,69.8,64.0,30.08,ENE,64,0.0,0.0,82,0.00,SCT,SCT,1.25,WeatherDisplay:10.37,2013-08-10 01:36:00,
2013-08-09 20:42:00,69.5,63.7,30.08,NE,41,0.0,0.0,82,0.00,SCT,SCT,1.25,WeatherDisplay:10.37,2013-08-10 01:42:00,
2013-08-09 20:48:00,68.9,63.1,30.09,East,82,0.0,0.0,82,0.00,SCT,SCT,1.25,WeatherDisplay:10.37,2013-08-10 01:48:00,
2013-08-09 20:54:00,68.8,63.0,30.09,ENE,78,0.0,0.0,82,0.00,SCT,SCT,1.25,WeatherDisplay:10.37,2013-08-10 01:54:00,
2013-08-09 21:00:00,68.4,62.6,30.09,West,270,0.0,0.0,82,0.00,SCT,SCT,1.25,WeatherDisplay:10.37,2013-08-10 02:00:00,
2013-08-09 21:06:00,68.0,62.3,30.10,WNW,299,0.0,0.0,82,0.00,SCT,SCT,1.25,WeatherDisplay:10.37,2013-08-10 02:06:00,
2013-08-09 21:12:00,67.8,62.1,30.10,North,7,0.0,0.0,82,0.00,SCT,SCT,1.25,WeatherDisplay:10.37,2013-08-10 02:12:00,
2013-08-09 21:18:00,67.5,61.8,30.10,ENE,62,0.0,0.0,82,0.00,SCT,SCT,1.25,WeatherDisplay:10.37,2013-08-10 02:18:00,
2013-08-09 21:24:00,67.5,61.8,30.10,NE,44,0.0,0.0,82,0.00,SCT,SCT,1.25,WeatherDisplay:10.37,2013-08-10 02:24:00,
2013-08-09 21:30:00,67.3,61.6,30.10,NE,42,0.0,0.0,82,0.00,SCT,SCT,1.25,WeatherDisplay:10.37,2013-08-10 02:30:00,
2013-08-09 21:36:00,66.8,61.1,30.10,East,85,0.0,0.0,82,0.00,SCT,SCT,1.25,WeatherDisplay:10.37,2013-08-10 02:36:00,
2013-08-09 21:42:00,66.8,61.1,30.11,NE,53,0.0,0.0,82,0.00,SCT,SCT,1.25,WeatherDisplay:10.37,2013-08-10 02:42:00,
2013-08-09 21:48:00,66.6,60.9,30.11,NNW,346,0.0,0.0,82,0.00,SCT,SCT,1.25,WeatherDisplay:10.37,2013-08-10 02:48:00,
2013-08-09 21:54:00,66.2,60.5,30.11,NNW,328,0.0,0.0,82,0.00,SCT,SCT,1.25,WeatherDisplay:10.37,2013-08-10 02:54:00,
2013-08-09 22:00:00,66.2,60.5,30.12,North,360,0.0,0.0,82,0.00,SCT,SCT,1.25,WeatherDisplay:10.37,2013-08-10 03:00:00,
2013-08-09 22:06:00,66.1,62.4,30.12,ENE,67,0.0,0.0,88,0.00,FEW,FEW,1.25,WeatherDisplay:10.37,2013-08-10 03:06:00,
2013-08-09 22:12:00,65.7,62.1,30.12,NE,54,0.0,0.0,88,0.00,FEW,FEW,1.25,WeatherDisplay:10.37,2013-08-10 03:12:00,
2013-08-09 22:18:00,65.9,62.2,30.12,North,359,0.0,0.0,88,0.00,FEW,FEW,1.25,WeatherDisplay:10.37,2013-08-10 03:18:00,
2013-08-09 22:24:00,65.7,62.0,30.12,North,3,0.0,0.0,88,0.00,FEW,FEW,1.25,WeatherDisplay:10.37,2013-08-10 03:24:00,
2013-08-09 22:30:00,65.7,62.0,30.12,NNW,336,0.0,0.0,88,0.00,FEW,FEW,1.25,WeatherDisplay:10.37,2013-08-10 03:30:00,
2013-08-09 22:36:00,65.7,62.0,30.12,NNW,329,0.0,0.0,88,0.00,FEW,FEW,1.25,WeatherDisplay:10.37,2013-08-10 03:36:00,
2013-08-09 22:42:00,65.7,62.0,30.13,North,7,0.0,0.0,88,0.00,FEW,FEW,1.25,WeatherDisplay:10.37,2013-08-10 03:42:00,
2013-08-09 22:48:00,65.7,62.0,30.13,North,9,0.0,0.0,88,0.00,FEW,FEW,1.25,WeatherDisplay:10.37,2013-08-10 03:48:00,
2013-08-09 22:54:00,65.5,61.9,30.13,NE,50,0.0,0.0,88,0.00,FEW,FEW,1.25,WeatherDisplay:10.37,2013-08-10 03:54:00,
2013-08-09 23:00:00,65.5,63.4,30.13,NNW,341,0.0,0.0,93,0.00,FEW,FEW,1.25,WeatherDisplay:10.37,2013-08-10 04:00:00,
2013-08-09 23:03:00,65.5,63.4,30.13,NNW,343,0.0,0.0,93,0.00,FEW,FEW,1.25,WeatherDisplay:10.37,2013-08-10 04:03:00,
2013-08-09 23:09:00,65.3,63.2,30.13,NNW,332,0.0,0.0,93,0.00,FEW,FEW,1.25,WeatherDisplay:10.37,2013-08-10 04:09:00,
2013-08-09 23:12:00,65.2,63.1,30.13,NW,321,0.0,0.0,93,0.00,FEW,FEW,1.25,WeatherDisplay:10.37,2013-08-10 04:12:00,
2013-08-09 23:18:00,65.0,62.9,30.13,NW,317,0.0,0.0,93,0.00,FEW,FEW,1.25,WeatherDisplay:10.37,2013-08-10 04:18:00,
2013-08-09 23:21:00,65.0,62.9,30.13,NW,319,0.0,0.0,93,0.00,FEW,FEW,1.25,WeatherDisplay:10.37,2013-08-10 04:21:00,
2013-08-09 23:27:00,65.0,62.9,30.14,NW,324,0.0,0.0,93,0.00,FEW,FEW,1.25,WeatherDisplay:10.37,2013-08-10 04:27:00,
2013-08-09 23:33:00,64.6,62.5,30.14,NNE,27,0.0,0.0,93,0.00,FEW,FEW,1.25,WeatherDisplay:10.37,2013-08-10 04:33:00,
2013-08-09 23:39:00,64.6,62.5,30.14,ENE,59,0.0,0.0,93,0.00,FEW,FEW,1.25,WeatherDisplay:10.37,2013-08-10 04:39:00,
2013-08-09 23:45:00,64.4,62.3,30.14,NE,50,0.0,0.0,93,0.00,FEW,FEW,1.25,WeatherDisplay:10.37,2013-08-10 04:45:00,
2013-08-09 23:51:00,64.4,62.3,30.14,NW,323,0.0,0.0,93,0.00,FEW,FEW,1.25,WeatherDisplay:10.37,2013-08-10 04:51:00,
2013-08-09 23:57:00,64.3,62.2,30.14,WNW,294,0.0,0.0,93,0.00,FEW,FEW,1.25,WeatherDisplay:10.37,2013-08-10 04:57:00,